ELY5119 LLBG-EPKK
Flight info
| Callsign | ELY5119 |
|---|---|
| Flight time | N/A |
| Altitude | 34000 |
| Route | DAFNA DCT VELOX N71 DESPO DCT VOLBE DCT VESAR UB545 MUT UL619 OKLAM UB545 OSVEL UQ23 OSDAN UQ26 TUDBU DCT UPAMA DCT KENIN DCT LENOV |
| Aircraft | B738/M-SDE2E3FGHIJ1LORVWXY/LB1 |
Departure
| Time | N/A |
|---|---|
| Airport | Ben Gurion International Airport (LLBG) |
Arrival
| Time | 2026-04-30 20:18 |
|---|---|
| Airport | Kraków John Paul II International Airport (EPKK) |
| Time | Latitude | Longitude | Altitude | Speed | Heading |
|---|---|---|---|---|---|
| 2026-04-30 17:39 | 36.43710 | 33.61979 | 34032 ft | 444 kts | 326° |
| 2026-04-30 17:42 | 36.69645 | 33.42072 | 34050 ft | 441 kts | 326° |
| 2026-04-30 17:43 | 36.82683 | 33.32003 | 34057 ft | 441 kts | 326° |
| 2026-04-30 17:44 | 36.89711 | 33.24780 | 34068 ft | 436 kts | 310° |
| 2026-04-30 17:44 | 36.95818 | 33.16336 | 34058 ft | 437 kts | 310° |
| 2026-04-30 17:47 | 37.14215 | 32.91143 | 34065 ft | 436 kts | 310° |
| 2026-04-30 17:48 | 37.28488 | 32.71507 | 34052 ft | 434 kts | 310° |
| 2026-04-30 17:50 | 37.44655 | 32.49121 | 34063 ft | 431 kts | 310° |
| 2026-04-30 17:52 | 37.56701 | 32.32340 | 34075 ft | 430 kts | 310° |
| 2026-04-30 17:54 | 37.74650 | 32.07172 | 34092 ft | 428 kts | 309° |
| 2026-04-30 17:56 | 37.90578 | 31.84671 | 34056 ft | 430 kts | 309° |
| 2026-04-30 17:58 | 38.02502 | 31.67721 | 34055 ft | 430 kts | 309° |
| 2026-04-30 18:00 | 38.18030 | 31.44806 | 34037 ft | 429 kts | 310° |
| 2026-04-30 18:01 | 38.28054 | 31.30751 | 34026 ft | 429 kts | 309° |
| 2026-04-30 18:02 | 38.39956 | 31.13737 | 34009 ft | 428 kts | 309° |
| 2026-04-30 18:04 | 38.52655 | 30.97824 | 34011 ft | 432 kts | 322° |
| 2026-04-30 18:06 | 38.72400 | 30.80434 | 34014 ft | 432 kts | 321° |
| 2026-04-30 18:08 | 38.90054 | 30.65649 | 34013 ft | 437 kts | 329° |
| 2026-04-30 18:10 | 39.11892 | 30.51622 | 34005 ft | 439 kts | 329° |
| 2026-04-30 18:11 | 39.30926 | 30.39130 | 34021 ft | 438 kts | 328° |
| 2026-04-30 18:13 | 39.44497 | 30.30177 | 34009 ft | 437 kts | 328° |
| 2026-04-30 18:14 | 39.58367 | 30.21997 | 34006 ft | 440 kts | 333° |
| 2026-04-30 18:15 | 39.75342 | 30.13023 | 34012 ft | 439 kts | 333° |
| 2026-04-30 18:16 | 39.86642 | 30.06951 | 34007 ft | 440 kts | 333° |
| 2026-04-30 18:17 | 39.92296 | 30.03907 | 34009 ft | 440 kts | 333° |
| 2026-04-30 18:18 | 39.99834 | 29.99840 | 34008 ft | 441 kts | 333° |
| 2026-04-30 18:18 | 40.06415 | 29.96276 | 34006 ft | 440 kts | 333° |
| 2026-04-30 18:19 | 40.11134 | 29.93714 | 34024 ft | 438 kts | 333° |
| 2026-04-30 18:19 | 40.16762 | 29.90656 | 34042 ft | 438 kts | 332° |
| 2026-04-30 18:20 | 40.22402 | 29.87585 | 34025 ft | 439 kts | 332° |
| 2026-04-30 18:20 | 40.27796 | 29.84643 | 34022 ft | 440 kts | 332° |
| 2026-04-30 18:21 | 40.33443 | 29.81557 | 34029 ft | 440 kts | 332° |
| 2026-04-30 18:21 | 40.39094 | 29.78464 | 34043 ft | 440 kts | 332° |
| 2026-04-30 18:22 | 40.44737 | 29.75370 | 34036 ft | 439 kts | 332° |
| 2026-04-30 18:22 | 40.53138 | 29.70752 | 34033 ft | 438 kts | 331° |
| 2026-04-30 18:23 | 40.58754 | 29.67657 | 34034 ft | 437 kts | 331° |
| 2026-04-30 18:23 | 40.64377 | 29.64542 | 34057 ft | 434 kts | 329° |
| 2026-04-30 18:24 | 40.69331 | 29.60375 | 34058 ft | 421 kts | 316° |
| 2026-04-30 18:24 | 40.71632 | 29.57918 | 34051 ft | 420 kts | 315° |
| 2026-04-30 18:25 | 40.76134 | 29.53103 | 34064 ft | 419 kts | 315° |
| 2026-04-30 18:25 | 40.82946 | 29.45887 | 34075 ft | 419 kts | 316° |
| 2026-04-30 18:26 | 40.89770 | 29.38677 | 34078 ft | 419 kts | 315° |
| 2026-04-30 18:27 | 40.96605 | 29.31435 | 34075 ft | 420 kts | 315° |
| 2026-04-30 18:28 | 41.03454 | 29.24157 | 34090 ft | 422 kts | 315° |
| 2026-04-30 18:28 | 41.10337 | 29.16826 | 34073 ft | 424 kts | 315° |
| 2026-04-30 18:29 | 41.17492 | 29.04873 | 34094 ft | 414 kts | 298° |
| 2026-04-30 18:30 | 41.23832 | 28.92077 | 34106 ft | 415 kts | 298° |
| 2026-04-30 18:31 | 41.28609 | 28.82487 | 34104 ft | 414 kts | 298° |
| 2026-04-30 18:32 | 41.33360 | 28.72925 | 34128 ft | 412 kts | 298° |
| 2026-04-30 18:33 | 41.38074 | 28.63405 | 34100 ft | 409 kts | 297° |
| 2026-04-30 18:33 | 41.42720 | 28.53991 | 34104 ft | 405 kts | 297° |
| 2026-04-30 18:34 | 41.47381 | 28.44521 | 34860 ft | 399 kts | 298° |
| 2026-04-30 18:34 | 41.48895 | 28.41482 | 35105 ft | 399 kts | 300° |
| 2026-04-30 18:35 | 41.50702 | 28.38560 | 35168 ft | 409 kts | 308° |
| 2026-04-30 18:35 | 41.52719 | 28.35924 | 35273 ft | 412 kts | 309° |
| 2026-04-30 18:35 | 41.54776 | 28.33263 | 35507 ft | 411 kts | 309° |
| 2026-04-30 18:36 | 41.58817 | 28.28012 | 35966 ft | 408 kts | 309° |
| 2026-04-30 18:36 | 41.60843 | 28.25357 | 36096 ft | 408 kts | 309° |
| 2026-04-30 18:37 | 41.66914 | 28.17351 | 36133 ft | 408 kts | 309° |
| 2026-04-30 18:37 | 41.70946 | 28.12017 | 36131 ft | 407 kts | 309° |
| 2026-04-30 18:38 | 41.74965 | 28.06689 | 36135 ft | 406 kts | 309° |
| 2026-04-30 18:38 | 41.78973 | 28.01367 | 36137 ft | 405 kts | 309° |
| 2026-04-30 18:39 | 41.82975 | 27.96042 | 36145 ft | 405 kts | 309° |
| 2026-04-30 18:39 | 41.86970 | 27.90715 | 36154 ft | 405 kts | 309° |
| 2026-04-30 18:40 | 41.90969 | 27.85374 | 36146 ft | 405 kts | 309° |
| 2026-04-30 18:40 | 41.94966 | 27.80027 | 36155 ft | 406 kts | 309° |
| 2026-04-30 18:41 | 41.98927 | 27.74691 | 36163 ft | 406 kts | 308° |
| 2026-04-30 18:41 | 42.02890 | 27.69267 | 36156 ft | 407 kts | 308° |
| 2026-04-30 18:42 | 42.06855 | 27.63824 | 36165 ft | 408 kts | 308° |
| 2026-04-30 18:42 | 42.12813 | 27.55633 | 36171 ft | 409 kts | 308° |
| 2026-04-30 18:45 | 42.34689 | 27.25390 | 36195 ft | 407 kts | 308° |
| 2026-04-30 18:46 | 42.38630 | 27.19907 | 36197 ft | 406 kts | 308° |
| 2026-04-30 18:46 | 42.42559 | 27.14430 | 36199 ft | 406 kts | 308° |
| 2026-04-30 18:47 | 42.46486 | 27.08945 | 36197 ft | 406 kts | 307° |
| 2026-04-30 18:47 | 42.50404 | 27.03463 | 36208 ft | 405 kts | 307° |
| 2026-04-30 18:48 | 42.54318 | 26.97974 | 36205 ft | 404 kts | 307° |
| 2026-04-30 18:48 | 42.58223 | 26.92489 | 36226 ft | 404 kts | 307° |
| 2026-04-30 18:49 | 42.62129 | 26.86991 | 36218 ft | 405 kts | 307° |
| 2026-04-30 18:49 | 42.66042 | 26.81472 | 36223 ft | 406 kts | 307° |
| 2026-04-30 18:50 | 42.69952 | 26.75947 | 36225 ft | 406 kts | 307° |
| 2026-04-30 18:50 | 42.73867 | 26.70406 | 36252 ft | 407 kts | 308° |
| 2026-04-30 18:51 | 42.77792 | 26.64838 | 36239 ft | 408 kts | 308° |
| 2026-04-30 18:51 | 42.81726 | 26.59247 | 36231 ft | 410 kts | 308° |
| 2026-04-30 18:52 | 42.85646 | 26.53664 | 36241 ft | 411 kts | 308° |
| 2026-04-30 18:52 | 42.89596 | 26.48029 | 36273 ft | 412 kts | 308° |
| 2026-04-30 18:53 | 42.93564 | 26.42356 | 36256 ft | 414 kts | 308° |
| 2026-04-30 18:53 | 42.97538 | 26.36664 | 36265 ft | 415 kts | 308° |
| 2026-04-30 18:54 | 43.01523 | 26.30945 | 36261 ft | 416 kts | 308° |
| 2026-04-30 18:54 | 43.05511 | 26.25209 | 36298 ft | 417 kts | 308° |
| 2026-04-30 18:55 | 43.09509 | 26.19448 | 36291 ft | 418 kts | 308° |
| 2026-04-30 18:55 | 43.15508 | 26.10782 | 36290 ft | 418 kts | 308° |
| 2026-04-30 18:56 | 43.21495 | 26.02106 | 36305 ft | 417 kts | 308° |
| 2026-04-30 18:57 | 43.27456 | 25.93441 | 36312 ft | 416 kts | 308° |
| 2026-04-30 18:57 | 43.31427 | 25.87654 | 36307 ft | 416 kts | 308° |
| 2026-04-30 18:58 | 43.37359 | 25.78987 | 36324 ft | 415 kts | 308° |
| 2026-04-30 18:59 | 43.43262 | 25.70334 | 36310 ft | 416 kts | 308° |
| 2026-04-30 19:00 | 43.51195 | 25.58663 | 36322 ft | 416 kts | 308° |
| 2026-04-30 19:01 | 43.59082 | 25.47016 | 36321 ft | 418 kts | 308° |
| 2026-04-30 19:02 | 43.65934 | 25.39419 | 36319 ft | 433 kts | 328° |
| 2026-04-30 19:03 | 43.76836 | 25.32190 | 36339 ft | 436 kts | 329° |
| 2026-04-30 19:04 | 43.87786 | 25.24848 | 36325 ft | 438 kts | 329° |
| 2026-04-30 19:05 | 43.98740 | 25.17423 | 36332 ft | 438 kts | 329° |
| 2026-04-30 19:06 | 44.09679 | 25.09978 | 36334 ft | 437 kts | 329° |
| 2026-04-30 19:06 | 44.16941 | 25.05019 | 36340 ft | 437 kts | 329° |
| 2026-04-30 19:07 | 44.25114 | 24.99421 | 36345 ft | 436 kts | 329° |
| 2026-04-30 19:08 | 44.35970 | 24.91958 | 36346 ft | 434 kts | 329° |
| 2026-04-30 19:09 | 44.44098 | 24.86351 | 36348 ft | 434 kts | 329° |
| 2026-04-30 19:09 | 44.49514 | 24.82604 | 36345 ft | 434 kts | 329° |
| 2026-04-30 19:10 | 44.60342 | 24.75090 | 36347 ft | 434 kts | 330° |
| 2026-04-30 19:11 | 44.68470 | 24.69430 | 36352 ft | 435 kts | 330° |
| 2026-04-30 19:12 | 44.73888 | 24.65647 | 36356 ft | 435 kts | 330° |
| 2026-04-30 19:12 | 44.79317 | 24.61847 | 36354 ft | 436 kts | 330° |
| 2026-04-30 19:13 | 44.90192 | 24.54214 | 36361 ft | 437 kts | 330° |
| 2026-04-30 19:14 | 44.95635 | 24.50381 | 36355 ft | 438 kts | 330° |
| 2026-04-30 19:14 | 45.01092 | 24.46530 | 36351 ft | 438 kts | 330° |
| 2026-04-30 19:15 | 45.06546 | 24.42673 | 36344 ft | 438 kts | 331° |
| 2026-04-30 19:15 | 45.14720 | 24.36877 | 36365 ft | 439 kts | 331° |
| 2026-04-30 19:16 | 45.20175 | 24.32999 | 36355 ft | 439 kts | 331° |
| 2026-04-30 19:17 | 45.28324 | 24.27188 | 36346 ft | 439 kts | 331° |
| 2026-04-30 19:17 | 45.36490 | 24.21348 | 36342 ft | 438 kts | 332° |
| 2026-04-30 19:18 | 45.44634 | 24.15504 | 36355 ft | 436 kts | 332° |
| 2026-04-30 19:19 | 45.50054 | 24.11604 | 36347 ft | 436 kts | 332° |
| 2026-04-30 19:19 | 45.58166 | 24.05751 | 36344 ft | 435 kts | 332° |
| 2026-04-30 19:20 | 45.63568 | 24.01844 | 36344 ft | 435 kts | 332° |
| 2026-04-30 19:21 | 45.71653 | 23.95978 | 36323 ft | 434 kts | 332° |
| 2026-04-30 19:22 | 45.82408 | 23.88147 | 36328 ft | 433 kts | 332° |
| 2026-04-30 19:23 | 45.98504 | 23.76362 | 36338 ft | 433 kts | 332° |
| 2026-04-30 19:24 | 46.06551 | 23.70441 | 36338 ft | 433 kts | 332° |
| 2026-04-30 19:25 | 46.19960 | 23.60532 | 36337 ft | 433 kts | 332° |
| 2026-04-30 19:26 | 46.30689 | 23.52563 | 36342 ft | 433 kts | 332° |
| 2026-04-30 19:27 | 46.38701 | 23.46590 | 36332 ft | 434 kts | 332° |
| 2026-04-30 19:28 | 46.46753 | 23.40567 | 36332 ft | 434 kts | 332° |
| 2026-04-30 19:29 | 46.57490 | 23.32503 | 36326 ft | 435 kts | 332° |
| 2026-04-30 19:30 | 46.68236 | 23.24396 | 36332 ft | 435 kts | 333° |
| 2026-04-30 19:31 | 46.78974 | 23.16259 | 36332 ft | 435 kts | 333° |
| 2026-04-30 19:31 | 46.87036 | 23.10126 | 36330 ft | 435 kts | 333° |
| 2026-04-30 19:32 | 46.92409 | 23.06026 | 36296 ft | 436 kts | 333° |
| 2026-04-30 19:32 | 46.97785 | 23.01915 | 36316 ft | 436 kts | 333° |
| 2026-04-30 19:33 | 47.03155 | 22.97799 | 36314 ft | 436 kts | 333° |
| 2026-04-30 19:33 | 47.08531 | 22.93670 | 36326 ft | 436 kts | 333° |
| 2026-04-30 19:34 | 47.13907 | 22.89530 | 36300 ft | 437 kts | 333° |
| 2026-04-30 19:35 | 47.21936 | 22.83330 | 36312 ft | 437 kts | 333° |
| 2026-04-30 19:35 | 47.27311 | 22.79167 | 36319 ft | 437 kts | 333° |
| 2026-04-30 19:36 | 47.32695 | 22.74989 | 36316 ft | 437 kts | 333° |
| 2026-04-30 19:36 | 47.40766 | 22.68705 | 36310 ft | 438 kts | 333° |
| 2026-04-30 19:37 | 47.46152 | 22.64500 | 36295 ft | 438 kts | 333° |
| 2026-04-30 19:37 | 47.51531 | 22.60291 | 36322 ft | 437 kts | 334° |
| 2026-04-30 19:38 | 47.56910 | 22.56072 | 36321 ft | 437 kts | 334° |
| 2026-04-30 19:38 | 47.62288 | 22.51843 | 36320 ft | 437 kts | 334° |
| 2026-04-30 19:39 | 47.67657 | 22.47612 | 36328 ft | 437 kts | 334° |
| 2026-04-30 19:39 | 47.73030 | 22.43368 | 36324 ft | 437 kts | 334° |
| 2026-04-30 19:40 | 47.78396 | 22.39119 | 36321 ft | 437 kts | 334° |
| 2026-04-30 19:40 | 47.83552 | 22.35027 | 36327 ft | 437 kts | 334° |
| 2026-04-30 19:41 | 47.88915 | 22.30761 | 36331 ft | 437 kts | 334° |
| 2026-04-30 19:41 | 47.94273 | 22.26489 | 36331 ft | 437 kts | 334° |
| 2026-04-30 19:42 | 47.99627 | 22.22209 | 36335 ft | 437 kts | 334° |
| 2026-04-30 19:42 | 48.04981 | 22.17919 | 36326 ft | 436 kts | 334° |
| 2026-04-30 19:43 | 48.10292 | 22.13654 | 36337 ft | 436 kts | 334° |
| 2026-04-30 19:44 | 48.18313 | 22.07194 | 36335 ft | 436 kts | 334° |
| 2026-04-30 19:44 | 48.23662 | 22.02873 | 36335 ft | 436 kts | 334° |
| 2026-04-30 19:45 | 48.29004 | 21.98546 | 36344 ft | 436 kts | 334° |
| 2026-04-30 19:45 | 48.34346 | 21.94210 | 36331 ft | 436 kts | 335° |
| 2026-04-30 19:46 | 48.39620 | 21.89702 | 36339 ft | 437 kts | 332° |
| 2026-04-30 19:46 | 48.44795 | 21.84883 | 36342 ft | 437 kts | 332° |
| 2026-04-30 19:46 | 48.47360 | 21.82470 | 36176 ft | 433 kts | 332° |
| 2026-04-30 19:47 | 48.49901 | 21.80086 | 35851 ft | 426 kts | 332° |
| 2026-04-30 19:47 | 48.51561 | 21.78534 | 35576 ft | 423 kts | 332° |
| 2026-04-30 19:47 | 48.54889 | 21.75431 | 35067 ft | 417 kts | 332° |
| 2026-04-30 19:47 | 48.57347 | 21.73144 | 34674 ft | 414 kts | 333° |
| 2026-04-30 19:48 | 48.59790 | 21.70873 | 34274 ft | 411 kts | 333° |
| 2026-04-30 19:48 | 48.62218 | 21.68614 | 33806 ft | 408 kts | 333° |
| 2026-04-30 19:48 | 48.64620 | 21.66377 | 33376 ft | 404 kts | 333° |
| 2026-04-30 19:48 | 48.66997 | 21.64161 | 32976 ft | 400 kts | 333° |
| 2026-04-30 19:49 | 48.69357 | 21.61956 | 32579 ft | 396 kts | 332° |
| 2026-04-30 19:49 | 48.73998 | 21.57615 | 31815 ft | 389 kts | 332° |
| 2026-04-30 19:49 | 48.76293 | 21.55465 | 31442 ft | 385 kts | 332° |
| 2026-04-30 19:50 | 48.78565 | 21.53335 | 31063 ft | 382 kts | 332° |
| 2026-04-30 19:50 | 48.80814 | 21.51223 | 30701 ft | 379 kts | 332° |
| 2026-04-30 19:50 | 48.83045 | 21.49126 | 30326 ft | 376 kts | 332° |
| 2026-04-30 19:50 | 48.85261 | 21.47041 | 29883 ft | 372 kts | 333° |
| 2026-04-30 19:51 | 48.87443 | 21.44984 | 29528 ft | 367 kts | 333° |
| 2026-04-30 19:51 | 48.89596 | 21.42953 | 29166 ft | 362 kts | 333° |
| 2026-04-30 19:51 | 48.91727 | 21.40941 | 28793 ft | 358 kts | 333° |
| 2026-04-30 19:51 | 48.93830 | 21.38954 | 28430 ft | 354 kts | 333° |
| 2026-04-30 19:52 | 48.95880 | 21.37015 | 28065 ft | 351 kts | 333° |
| 2026-04-30 19:52 | 48.97944 | 21.35062 | 27738 ft | 346 kts | 333° |
| 2026-04-30 19:52 | 48.99973 | 21.33139 | 27360 ft | 343 kts | 333° |
| 2026-04-30 19:52 | 49.01992 | 21.31224 | 27016 ft | 340 kts | 333° |
| 2026-04-30 19:53 | 49.03984 | 21.29333 | 26660 ft | 337 kts | 333° |
| 2026-04-30 19:53 | 49.05968 | 21.27449 | 26312 ft | 334 kts | 333° |
| 2026-04-30 19:53 | 49.07934 | 21.25578 | 25985 ft | 332 kts | 333° |
| 2026-04-30 19:53 | 49.09886 | 21.23721 | 25648 ft | 330 kts | 333° |
| 2026-04-30 19:54 | 49.11828 | 21.21870 | 25277 ft | 327 kts | 333° |
| 2026-04-30 19:54 | 49.13750 | 21.20036 | 24951 ft | 325 kts | 333° |
| 2026-04-30 19:54 | 49.15661 | 21.18212 | 24634 ft | 323 kts | 333° |
| 2026-04-30 19:54 | 49.17556 | 21.16401 | 24307 ft | 321 kts | 333° |
| 2026-04-30 19:55 | 49.19443 | 21.14596 | 23968 ft | 319 kts | 333° |
| 2026-04-30 19:55 | 49.20687 | 21.13405 | 23719 ft | 317 kts | 333° |
| 2026-04-30 19:55 | 49.22550 | 21.11619 | 23369 ft | 316 kts | 333° |
| 2026-04-30 19:55 | 49.24411 | 21.09835 | 23020 ft | 314 kts | 333° |
| 2026-04-30 19:56 | 49.26265 | 21.08057 | 22717 ft | 318 kts | 333° |
| 2026-04-30 19:56 | 49.28179 | 21.06226 | 22391 ft | 329 kts | 333° |
| 2026-04-30 19:56 | 49.30130 | 21.04351 | 22009 ft | 331 kts | 333° |
| 2026-04-30 19:56 | 49.32070 | 21.02480 | 21645 ft | 329 kts | 333° |
| 2026-04-30 19:57 | 49.33946 | 21.00467 | 21272 ft | 332 kts | 321° |
| 2026-04-30 19:57 | 49.35491 | 20.97810 | 20941 ft | 333 kts | 316° |
| 2026-04-30 19:57 | 49.36963 | 20.95079 | 20572 ft | 333 kts | 315° |
| 2026-04-30 19:57 | 49.38429 | 20.92343 | 20199 ft | 330 kts | 315° |
| 2026-04-30 19:58 | 49.39882 | 20.89644 | 19879 ft | 327 kts | 316° |
| 2026-04-30 19:58 | 49.41329 | 20.86971 | 19558 ft | 324 kts | 316° |
| 2026-04-30 19:58 | 49.42767 | 20.84327 | 19231 ft | 321 kts | 316° |
| 2026-04-30 19:58 | 49.44199 | 20.81700 | 18904 ft | 319 kts | 316° |
| 2026-04-30 19:59 | 49.45620 | 20.79096 | 18573 ft | 317 kts | 316° |
| 2026-04-30 19:59 | 49.47033 | 20.76509 | 18210 ft | 316 kts | 316° |
| 2026-04-30 19:59 | 49.49827 | 20.71382 | 17553 ft | 309 kts | 316° |
| 2026-04-30 20:00 | 49.51200 | 20.68862 | 17240 ft | 308 kts | 316° |
| 2026-04-30 20:00 | 49.52573 | 20.66339 | 16925 ft | 305 kts | 316° |
| 2026-04-30 20:00 | 49.53929 | 20.63846 | 16606 ft | 303 kts | 316° |
| 2026-04-30 20:00 | 49.55278 | 20.61363 | 16295 ft | 302 kts | 316° |
| 2026-04-30 20:01 | 49.57956 | 20.56425 | 15660 ft | 299 kts | 316° |
| 2026-04-30 20:01 | 49.59283 | 20.53969 | 15346 ft | 298 kts | 316° |
| 2026-04-30 20:01 | 49.60604 | 20.51522 | 15046 ft | 296 kts | 316° |
| 2026-04-30 20:02 | 49.63229 | 20.46649 | 14439 ft | 295 kts | 316° |
| 2026-04-30 20:02 | 49.64524 | 20.44243 | 14115 ft | 295 kts | 316° |
| 2026-04-30 20:03 | 49.67148 | 20.39361 | 13448 ft | 292 kts | 315° |
| 2026-04-30 20:03 | 49.68420 | 20.36989 | 13144 ft | 290 kts | 315° |
| 2026-04-30 20:03 | 49.69704 | 20.34594 | 12844 ft | 288 kts | 315° |
| 2026-04-30 20:03 | 49.70977 | 20.32218 | 12550 ft | 286 kts | 315° |
| 2026-04-30 20:04 | 49.72242 | 20.29855 | 12251 ft | 285 kts | 315° |
| 2026-04-30 20:04 | 49.73504 | 20.27495 | 11944 ft | 284 kts | 315° |
| 2026-04-30 20:04 | 49.74760 | 20.25145 | 11629 ft | 283 kts | 315° |
| 2026-04-30 20:05 | 49.77244 | 20.20489 | 11165 ft | 276 kts | 314° |
| 2026-04-30 20:05 | 49.78459 | 20.18256 | 11001 ft | 268 kts | 319° |
| 2026-04-30 20:05 | 49.81381 | 20.14680 | 10388 ft | 264 kts | 328° |
| 2026-04-30 20:06 | 49.82858 | 20.13022 | 10169 ft | 260 kts | 328° |
| 2026-04-30 20:06 | 49.84313 | 20.11369 | 9869 ft | 259 kts | 328° |
| 2026-04-30 20:06 | 49.85757 | 20.09704 | 9594 ft | 257 kts | 327° |
| 2026-04-30 20:06 | 49.87183 | 20.08042 | 9319 ft | 256 kts | 327° |
| 2026-04-30 20:07 | 49.88597 | 20.06382 | 9046 ft | 254 kts | 326° |
| 2026-04-30 20:07 | 49.90003 | 20.04727 | 8767 ft | 253 kts | 326° |
| 2026-04-30 20:07 | 49.92912 | 20.01833 | 8282 ft | 243 kts | 349° |
| 2026-04-30 20:08 | 49.94569 | 20.01365 | 8158 ft | 244 kts | 351° |
| 2026-04-30 20:08 | 49.96253 | 20.00881 | 8000 ft | 247 kts | 351° |
| 2026-04-30 20:08 | 49.97927 | 20.00392 | 7822 ft | 242 kts | 351° |
| 2026-04-30 20:08 | 49.99572 | 20.00268 | 7634 ft | 236 kts | 13° |
| 2026-04-30 20:09 | 50.01009 | 20.01365 | 7479 ft | 231 kts | 38° |
| 2026-04-30 20:09 | 50.02054 | 20.03308 | 7089 ft | 238 kts | 59° |
| 2026-04-30 20:09 | 50.02904 | 20.08269 | 6671 ft | 235 kts | 75° |
| 2026-04-30 20:10 | 50.03542 | 20.13166 | 6342 ft | 229 kts | 75° |
| 2026-04-30 20:10 | 50.03864 | 20.15580 | 6200 ft | 228 kts | 75° |
| 2026-04-30 20:10 | 50.04186 | 20.17982 | 6054 ft | 227 kts | 75° |
| 2026-04-30 20:11 | 50.05204 | 20.22507 | 5732 ft | 219 kts | 40° |
| 2026-04-30 20:11 | 50.06511 | 20.23613 | 5625 ft | 215 kts | 12° |
| 2026-04-30 20:11 | 50.07998 | 20.23690 | 5488 ft | 217 kts | 351° |
| 2026-04-30 20:12 | 50.11007 | 20.22694 | 5211 ft | 224 kts | 345° |
| 2026-04-30 20:12 | 50.12313 | 20.21436 | 5015 ft | 226 kts | 309° |
| 2026-04-30 20:12 | 50.12808 | 20.19172 | 4837 ft | 229 kts | 274° |
| 2026-04-30 20:13 | 50.12753 | 20.16739 | 4665 ft | 221 kts | 270° |
| 2026-04-30 20:13 | 50.12636 | 20.14356 | 4429 ft | 215 kts | 268° |
| 2026-04-30 20:13 | 50.12448 | 20.12077 | 4228 ft | 208 kts | 264° |
| 2026-04-30 20:13 | 50.12178 | 20.09906 | 4056 ft | 199 kts | 262° |
| 2026-04-30 20:14 | 50.11896 | 20.07873 | 3874 ft | 191 kts | 261° |
| 2026-04-30 20:14 | 50.11616 | 20.05890 | 3696 ft | 185 kts | 262° |
| 2026-04-30 20:14 | 50.11340 | 20.03936 | 3546 ft | 185 kts | 262° |
| 2026-04-30 20:14 | 50.11062 | 20.01970 | 3398 ft | 187 kts | 261° |
| 2026-04-30 20:15 | 50.10782 | 19.99985 | 3231 ft | 187 kts | 261° |
| 2026-04-30 20:15 | 50.10506 | 19.98029 | 3080 ft | 184 kts | 261° |
| 2026-04-30 20:15 | 50.10234 | 19.96098 | 2944 ft | 181 kts | 261° |
| 2026-04-30 20:15 | 50.09970 | 19.94215 | 2707 ft | 175 kts | 261° |
| 2026-04-30 20:16 | 50.09713 | 19.92387 | 2464 ft | 171 kts | 261° |
| 2026-04-30 20:16 | 50.09460 | 19.90581 | 2262 ft | 167 kts | 260° |
| 2026-04-30 20:16 | 50.09218 | 19.88853 | 1982 ft | 159 kts | 259° |
| 2026-04-30 20:16 | 50.08988 | 19.87180 | 1721 ft | 159 kts | 260° |
| 2026-04-30 20:17 | 50.08749 | 19.85507 | 1526 ft | 156 kts | 258° |
| 2026-04-30 20:17 | 50.08516 | 19.83855 | 1314 ft | 158 kts | 257° |
| 2026-04-30 20:17 | 50.08287 | 19.82203 | 1159 ft | 155 kts | 259° |
| 2026-04-30 20:17 | 50.08056 | 19.80552 | 930 ft | 156 kts | 259° |
| 2026-04-30 20:18 | 50.07832 | 19.78909 | 793 ft | 147 kts | 259° |
| 2026-04-30 20:18 | 50.07655 | 19.77624 | 790 ft | 90 kts | 258° |
| 2026-04-30 20:18 | 50.07573 | 19.77035 | 796 ft | 29 kts | 258° |
| 2026-04-30 20:18 | 50.07502 | 19.76852 | 797 ft | 16 kts | 189° |
| 2026-04-30 20:19 | 50.07391 | 19.76883 | 791 ft | 15 kts | 167° |
| 2026-04-30 20:19 | 50.07339 | 19.76902 | 790 ft | 11 kts | 163° |
| 2026-04-30 20:19 | 50.07314 | 19.76997 | 790 ft | 6 kts | 77° |
| 2026-04-30 20:19 | 50.07324 | 19.77076 | 790 ft | 9 kts | 79° |
| 2026-04-30 20:20 | 50.07336 | 19.77178 | 790 ft | 10 kts | 76° |
| 2026-04-30 20:20 | 50.07353 | 19.77283 | 790 ft | 12 kts | 76° |
| 2026-04-30 20:20 | 50.07379 | 19.77462 | 790 ft | 22 kts | 78° |
| 2026-04-30 20:20 | 50.07416 | 19.77739 | 790 ft | 28 kts | 78° |
| 2026-04-30 20:21 | 50.07456 | 19.78021 | 790 ft | 26 kts | 77° |
| 2026-04-30 20:21 | 50.07493 | 19.78286 | 790 ft | 24 kts | 78° |
| 2026-04-30 20:21 | 50.07528 | 19.78534 | 790 ft | 23 kts | 78° |
| 2026-04-30 20:21 | 50.07562 | 19.78775 | 790 ft | 24 kts | 77° |
| 2026-04-30 20:22 | 50.07596 | 19.79033 | 790 ft | 24 kts | 78° |
| 2026-04-30 20:22 | 50.07631 | 19.79277 | 790 ft | 23 kts | 77° |
| 2026-04-30 20:22 | 50.07661 | 19.79491 | 790 ft | 17 kts | 77° |
| 2026-04-30 20:22 | 50.07679 | 19.79628 | 790 ft | 8 kts | 78° |
| 2026-04-30 20:23 | 50.07692 | 19.79717 | 790 ft | 10 kts | 77° |
| 2026-04-30 20:23 | 50.07705 | 19.79822 | 790 ft | 9 kts | 93° |
| 2026-04-30 20:23 | 50.07662 | 19.79882 | 790 ft | 9 kts | 163° |
| 2026-04-30 20:23 | 50.07599 | 19.79905 | 790 ft | 10 kts | 168° |
| 2026-04-30 20:24 | 50.07525 | 19.79929 | 790 ft | 12 kts | 168° |
| 2026-04-30 20:24 | 50.07440 | 19.79959 | 790 ft | 12 kts | 162° |
| 2026-04-30 20:24 | 50.07366 | 19.79988 | 790 ft | 9 kts | 168° |
| 2026-04-30 20:24 | 50.07321 | 19.80004 | 790 ft | 5 kts | 167° |
| 2026-04-30 20:25 | 50.07311 | 19.80007 | 790 ft | 0 kts | 167° |